sensor_id;sensor_type;location;lat;lon;timestamp;P1;durP1;ratioP1;P2;durP2;ratioP2
3119;SDS011;1570;51.350;6.602;2022-07-09T00:00:19;6.93;;;2.20;;
3119;SDS011;1570;51.350;6.602;2022-07-09T00:02:46;5.70;;;2.10;;
3119;SDS011;1570;51.350;6.602;2022-07-09T00:05:14;4.83;;;1.93;;
3119;SDS011;1570;51.350;6.602;2022-07-09T00:07:42;6.57;;;2.10;;
3119;SDS011;1570;51.350;6.602;2022-07-09T00:10:10;7.10;;;2.00;;
3119;SDS011;1570;51.350;6.602;2022-07-09T00:12:39;4.77;;;1.60;;
3119;SDS011;1570;51.350;6.602;2022-07-09T00:15:07;6.10;;;2.13;;
3119;SDS011;1570;51.350;6.602;2022-07-09T00:17:34;6.23;;;1.90;;
3119;SDS011;1570;51.350;6.602;2022-07-09T00:20:02;6.00;;;1.90;;
3119;SDS011;1570;51.350;6.602;2022-07-09T00:22:31;4.90;;;1.80;;
3119;SDS011;1570;51.350;6.602;2022-07-09T00:25:00;5.60;;;1.90;;
3119;SDS011;1570;51.350;6.602;2022-07-09T00:27:28;5.93;;;2.00;;
3119;SDS011;1570;51.350;6.602;2022-07-09T00:29:58;4.60;;;1.97;;
3119;SDS011;1570;51.350;6.602;2022-07-09T00:32:25;4.60;;;1.73;;
3119;SDS011;1570;51.350;6.602;2022-07-09T00:34:56;6.10;;;2.13;;
3119;SDS011;1570;51.350;6.602;2022-07-09T00:37:23;7.53;;;2.20;;
3119;SDS011;1570;51.350;6.602;2022-07-09T00:39:52;6.00;;;1.70;;
3119;SDS011;1570;51.350;6.602;2022-07-09T00:42:19;6.30;;;2.07;;
3119;SDS011;1570;51.350;6.602;2022-07-09T00:44:47;5.00;;;1.80;;
3119;SDS011;1570;51.350;6.602;2022-07-09T00:47:16;7.43;;;2.63;;
3119;SDS011;1570;51.350;6.602;2022-07-09T00:49:43;5.03;;;1.90;;
3119;SDS011;1570;51.350;6.602;2022-07-09T00:52:12;6.23;;;1.93;;
3119;SDS011;1570;51.350;6.602;2022-07-09T00:54:41;7.10;;;2.30;;
3119;SDS011;1570;51.350;6.602;2022-07-09T00:57:09;5.67;;;2.30;;
3119;SDS011;1570;51.350;6.602;2022-07-09T00:59:38;5.30;;;1.83;;
3119;SDS011;1570;51.350;6.602;2022-07-09T01:02:06;5.20;;;1.87;;
3119;SDS011;1570;51.350;6.602;2022-07-09T01:04:35;7.03;;;2.63;;
3119;SDS011;1570;51.350;6.602;2022-07-09T01:07:03;5.60;;;2.30;;
3119;SDS011;1570;51.350;6.602;2022-07-09T01:09:30;6.90;;;2.43;;
3119;SDS011;1570;51.350;6.602;2022-07-09T01:11:58;4.73;;;1.90;;
3119;SDS011;1570;51.350;6.602;2022-07-09T01:14:25;5.30;;;2.13;;
3119;SDS011;1570;51.350;6.602;2022-07-09T01:16:56;7.00;;;2.10;;
3119;SDS011;1570;51.350;6.602;2022-07-09T01:19:24;5.20;;;1.90;;
3119;SDS011;1570;51.350;6.602;2022-07-09T01:21:53;4.50;;;1.90;;
3119;SDS011;1570;51.350;6.602;2022-07-09T01:24:21;4.47;;;1.87;;
3119;SDS011;1570;51.350;6.602;2022-07-09T01:26:49;5.30;;;2.20;;
3119;SDS011;1570;51.350;6.602;2022-07-09T01:29:16;7.07;;;2.10;;
3119;SDS011;1570;51.350;6.602;2022-07-09T01:31:44;5.03;;;1.90;;
3119;SDS011;1570;51.350;6.602;2022-07-09T01:34:11;5.33;;;2.10;;
3119;SDS011;1570;51.350;6.602;2022-07-09T01:36:39;5.70;;;2.30;;
3119;SDS011;1570;51.350;6.602;2022-07-09T01:39:08;5.03;;;1.90;;
3119;SDS011;1570;51.350;6.602;2022-07-09T01:41:36;7.50;;;2.60;;
3119;SDS011;1570;51.350;6.602;2022-07-09T01:44:03;5.90;;;1.80;;
3119;SDS011;1570;51.350;6.602;2022-07-09T01:46:33;9.23;;;1.93;;
3119;SDS011;1570;51.350;6.602;2022-07-09T01:49:00;7.73;;;2.00;;
3119;SDS011;1570;51.350;6.602;2022-07-09T01:51:27;6.33;;;2.00;;
3119;SDS011;1570;51.350;6.602;2022-07-09T01:53:55;5.97;;;2.13;;
3119;SDS011;1570;51.350;6.602;2022-07-09T01:56:24;5.73;;;2.20;;
3119;SDS011;1570;51.350;6.602;2022-07-09T01:58:52;5.33;;;2.03;;
3119;SDS011;1570;51.350;6.602;2022-07-09T02:01:19;5.30;;;2.20;;
3119;SDS011;1570;51.350;6.602;2022-07-09T02:03:47;5.77;;;1.97;;
3119;SDS011;1570;51.350;6.602;2022-07-09T02:06:15;5.57;;;2.23;;
3119;SDS011;1570;51.350;6.602;2022-07-09T02:08:42;5.33;;;2.27;;
3119;SDS011;1570;51.350;6.602;2022-07-09T02:11:10;6.03;;;2.63;;
3119;SDS011;1570;51.350;6.602;2022-07-09T02:13:39;4.87;;;2.47;;
3119;SDS011;1570;51.350;6.602;2022-07-09T02:16:06;8.13;;;2.40;;
3119;SDS011;1570;51.350;6.602;2022-07-09T02:18:34;6.77;;;2.37;;
3119;SDS011;1570;51.350;6.602;2022-07-09T02:21:02;7.93;;;2.30;;
3119;SDS011;1570;51.350;6.602;2022-07-09T02:23:31;5.03;;;2.27;;
3119;SDS011;1570;51.350;6.602;2022-07-09T02:25:58;6.60;;;2.33;;
3119;SDS011;1570;51.350;6.602;2022-07-09T02:28:26;5.33;;;2.20;;
3119;SDS011;1570;51.350;6.602;2022-07-09T02:30:55;5.30;;;2.00;;
3119;SDS011;1570;51.350;6.602;2022-07-09T02:33:23;4.80;;;2.30;;
3119;SDS011;1570;51.350;6.602;2022-07-09T02:35:55;6.37;;;2.27;;
3119;SDS011;1570;51.350;6.602;2022-07-09T02:38:22;5.60;;;2.53;;
3119;SDS011;1570;51.350;6.602;2022-07-09T02:40:50;6.80;;;2.47;;
3119;SDS011;1570;51.350;6.602;2022-07-09T02:43:17;5.67;;;2.10;;
3119;SDS011;1570;51.350;6.602;2022-07-09T02:45:45;5.10;;;2.33;;
3119;SDS011;1570;51.350;6.602;2022-07-09T02:48:13;5.00;;;2.20;;
3119;SDS011;1570;51.350;6.602;2022-07-09T02:50:41;5.10;;;2.30;;
3119;SDS011;1570;51.350;6.602;2022-07-09T02:53:08;5.87;;;2.33;;
3119;SDS011;1570;51.350;6.602;2022-07-09T02:55:36;4.50;;;2.47;;
3119;SDS011;1570;51.350;6.602;2022-07-09T02:58:04;4.77;;;2.17;;
3119;SDS011;1570;51.350;6.602;2022-07-09T03:00:32;5.20;;;2.20;;
3119;SDS011;1570;51.350;6.602;2022-07-09T03:02:59;7.03;;;2.30;;
3119;SDS011;1570;51.350;6.602;2022-07-09T03:05:28;6.97;;;2.30;;
3119;SDS011;1570;51.350;6.602;2022-07-09T03:07:56;6.53;;;2.33;;
3119;SDS011;1570;51.350;6.602;2022-07-09T03:10:24;6.73;;;2.40;;
3119;SDS011;1570;51.350;6.602;2022-07-09T03:12:51;5.37;;;2.40;;
3119;SDS011;1570;51.350;6.602;2022-07-09T03:15:19;7.80;;;2.77;;
3119;SDS011;1570;51.350;6.602;2022-07-09T03:17:47;7.13;;;2.80;;
3119;SDS011;1570;51.350;6.602;2022-07-09T03:20:14;4.87;;;2.10;;
3119;SDS011;1570;51.350;6.602;2022-07-09T03:22:43;6.00;;;2.47;;
3119;SDS011;1570;51.350;6.602;2022-07-09T03:25:11;6.47;;;2.57;;
3119;SDS011;1570;51.350;6.602;2022-07-09T03:27:38;6.00;;;2.57;;
3119;SDS011;1570;51.350;6.602;2022-07-09T03:30:06;6.33;;;2.77;;
3119;SDS011;1570;51.350;6.602;2022-07-09T03:32:33;5.97;;;2.50;;
3119;SDS011;1570;51.350;6.602;2022-07-09T03:35:01;7.63;;;3.37;;
3119;SDS011;1570;51.350;6.602;2022-07-09T03:37:28;6.17;;;2.77;;
3119;SDS011;1570;51.350;6.602;2022-07-09T03:39:57;6.00;;;2.80;;
3119;SDS011;1570;51.350;6.602;2022-07-09T03:42:25;5.40;;;2.30;;
3119;SDS011;1570;51.350;6.602;2022-07-09T03:44:52;5.20;;;2.20;;
3119;SDS011;1570;51.350;6.602;2022-07-09T03:47:20;6.50;;;2.80;;
3119;SDS011;1570;51.350;6.602;2022-07-09T03:49:48;7.23;;;2.87;;
3119;SDS011;1570;51.350;6.602;2022-07-09T03:52:15;5.33;;;2.70;;
3119;SDS011;1570;51.350;6.602;2022-07-09T03:54:45;5.90;;;2.40;;
3119;SDS011;1570;51.350;6.602;2022-07-09T03:57:14;8.67;;;2.80;;
3119;SDS011;1570;51.350;6.602;2022-07-09T03:59:42;6.23;;;2.93;;
3119;SDS011;1570;51.350;6.602;2022-07-09T04:02:09;9.13;;;3.00;;
3119;SDS011;1570;51.350;6.602;2022-07-09T04:04:38;8.80;;;3.20;;
3119;SDS011;1570;51.350;6.602;2022-07-09T04:07:06;8.50;;;3.20;;
3119;SDS011;1570;51.350;6.602;2022-07-09T04:09:33;8.87;;;3.63;;
3119;SDS011;1570;51.350;6.602;2022-07-09T04:12:00;6.10;;;3.07;;
3119;SDS011;1570;51.350;6.602;2022-07-09T04:14:31;6.10;;;2.90;;
3119;SDS011;1570;51.350;6.602;2022-07-09T04:16:58;5.63;;;3.00;;
3119;SDS011;1570;51.350;6.602;2022-07-09T04:19:26;5.10;;;2.90;;
3119;SDS011;1570;51.350;6.602;2022-07-09T04:21:54;5.70;;;3.00;;
3119;SDS011;1570;51.350;6.602;2022-07-09T04:24:21;6.20;;;2.90;;
3119;SDS011;1570;51.350;6.602;2022-07-09T04:26:49;10.60;;;3.37;;
3119;SDS011;1570;51.350;6.602;2022-07-09T04:29:16;5.80;;;2.90;;
3119;SDS011;1570;51.350;6.602;2022-07-09T04:31:46;7.57;;;3.23;;
3119;SDS011;1570;51.350;6.602;2022-07-09T04:34:13;9.67;;;3.40;;
3119;SDS011;1570;51.350;6.602;2022-07-09T04:36:40;6.90;;;3.53;;
3119;SDS011;1570;51.350;6.602;2022-07-09T04:39:08;7.93;;;2.93;;
3119;SDS011;1570;51.350;6.602;2022-07-09T04:41:36;7.70;;;3.20;;
3119;SDS011;1570;51.350;6.602;2022-07-09T04:44:03;5.80;;;3.10;;
3119;SDS011;1570;51.350;6.602;2022-07-09T04:46:31;7.27;;;3.23;;
3119;SDS011;1570;51.350;6.602;2022-07-09T04:49:00;5.73;;;3.47;;
3119;SDS011;1570;51.350;6.602;2022-07-09T04:51:27;8.93;;;3.30;;
3119;SDS011;1570;51.350;6.602;2022-07-09T04:53:55;6.90;;;3.03;;
3119;SDS011;1570;51.350;6.602;2022-07-09T04:56:23;5.60;;;3.20;;
3119;SDS011;1570;51.350;6.602;2022-07-09T04:58:50;6.00;;;3.17;;
3119;SDS011;1570;51.350;6.602;2022-07-09T05:01:21;7.27;;;3.53;;
3119;SDS011;1570;51.350;6.602;2022-07-09T05:03:52;10.40;;;3.60;;
3119;SDS011;1570;51.350;6.602;2022-07-09T05:06:21;7.23;;;3.13;;
3119;SDS011;1570;51.350;6.602;2022-07-09T05:08:48;6.30;;;3.30;;
3119;SDS011;1570;51.350;6.602;2022-07-09T05:11:16;9.10;;;3.10;;
3119;SDS011;1570;51.350;6.602;2022-07-09T05:13:44;6.40;;;3.90;;
3119;SDS011;1570;51.350;6.602;2022-07-09T05:16:12;7.07;;;3.80;;
3119;SDS011;1570;51.350;6.602;2022-07-09T05:18:39;6.03;;;3.13;;
3119;SDS011;1570;51.350;6.602;2022-07-09T05:21:07;6.13;;;3.43;;
3119;SDS011;1570;51.350;6.602;2022-07-09T05:23:36;6.30;;;3.50;;
3119;SDS011;1570;51.350;6.602;2022-07-09T05:26:04;7.63;;;3.40;;
3119;SDS011;1570;51.350;6.602;2022-07-09T05:28:32;6.37;;;3.73;;
3119;SDS011;1570;51.350;6.602;2022-07-09T05:31:00;5.93;;;3.10;;
3119;SDS011;1570;51.350;6.602;2022-07-09T05:33:47;6.67;;;3.17;;
3119;SDS011;1570;51.350;6.602;2022-07-09T05:36:15;6.73;;;3.43;;
3119;SDS011;1570;51.350;6.602;2022-07-09T05:38:45;6.90;;;3.80;;
3119;SDS011;1570;51.350;6.602;2022-07-09T05:41:13;7.27;;;3.77;;
3119;SDS011;1570;51.350;6.602;2022-07-09T05:43:41;6.27;;;3.27;;
3119;SDS011;1570;51.350;6.602;2022-07-09T05:46:09;6.60;;;3.30;;
3119;SDS011;1570;51.350;6.602;2022-07-09T05:48:36;5.90;;;2.80;;
3119;SDS011;1570;51.350;6.602;2022-07-09T05:51:04;9.00;;;3.10;;
3119;SDS011;1570;51.350;6.602;2022-07-09T05:53:32;7.07;;;3.23;;
3119;SDS011;1570;51.350;6.602;2022-07-09T05:56:01;5.63;;;2.97;;
3119;SDS011;1570;51.350;6.602;2022-07-09T05:58:29;5.80;;;3.47;;
3119;SDS011;1570;51.350;6.602;2022-07-09T06:01:06;8.37;;;3.87;;
3119;SDS011;1570;51.350;6.602;2022-07-09T06:03:52;5.50;;;3.07;;
3119;SDS011;1570;51.350;6.602;2022-07-09T06:06:21;6.50;;;3.63;;
3119;SDS011;1570;51.350;6.602;2022-07-09T06:08:49;5.60;;;3.03;;
3119;SDS011;1570;51.350;6.602;2022-07-09T06:11:18;6.67;;;3.40;;
3119;SDS011;1570;51.350;6.602;2022-07-09T06:13:46;7.40;;;4.00;;
3119;SDS011;1570;51.350;6.602;2022-07-09T06:16:16;7.60;;;4.63;;
3119;SDS011;1570;51.350;6.602;2022-07-09T06:18:44;7.40;;;3.63;;
3119;SDS011;1570;51.350;6.602;2022-07-09T06:21:28;6.30;;;3.50;;
3119;SDS011;1570;51.350;6.602;2022-07-09T06:24:01;7.00;;;3.47;;
3119;SDS011;1570;51.350;6.602;2022-07-09T06:26:35;6.73;;;3.60;;
3119;SDS011;1570;51.350;6.602;2022-07-09T06:29:06;7.60;;;3.40;;
3119;SDS011;1570;51.350;6.602;2022-07-09T06:31:38;6.50;;;3.67;;
3119;SDS011;1570;51.350;6.602;2022-07-09T06:34:07;8.57;;;3.47;;
3119;SDS011;1570;51.350;6.602;2022-07-09T06:36:36;7.60;;;4.10;;
3119;SDS011;1570;51.350;6.602;2022-07-09T06:39:04;10.27;;;3.80;;
3119;SDS011;1570;51.350;6.602;2022-07-09T06:41:50;7.63;;;3.57;;
3119;SDS011;1570;51.350;6.602;2022-07-09T06:44:17;9.07;;;3.90;;
3119;SDS011;1570;51.350;6.602;2022-07-09T06:46:45;7.00;;;3.80;;
3119;SDS011;1570;51.350;6.602;2022-07-09T06:49:13;8.27;;;3.60;;
3119;SDS011;1570;51.350;6.602;2022-07-09T06:51:40;6.10;;;3.50;;
3119;SDS011;1570;51.350;6.602;2022-07-09T06:54:07;6.10;;;3.30;;
3119;SDS011;1570;51.350;6.602;2022-07-09T06:56:35;6.80;;;3.30;;
3119;SDS011;1570;51.350;6.602;2022-07-09T06:59:04;7.57;;;3.43;;
3119;SDS011;1570;51.350;6.602;2022-07-09T07:01:32;6.30;;;3.30;;
3119;SDS011;1570;51.350;6.602;2022-07-09T07:03:59;6.30;;;3.00;;
3119;SDS011;1570;51.350;6.602;2022-07-09T07:06:27;6.30;;;2.87;;
3119;SDS011;1570;51.350;6.602;2022-07-09T07:08:56;7.00;;;3.40;;
3119;SDS011;1570;51.350;6.602;2022-07-09T07:11:23;6.13;;;2.77;;
3119;SDS011;1570;51.350;6.602;2022-07-09T07:13:52;5.77;;;2.90;;
3119;SDS011;1570;51.350;6.602;2022-07-09T07:16:21;5.43;;;2.73;;
3119;SDS011;1570;51.350;6.602;2022-07-09T07:18:52;7.43;;;2.53;;
3119;SDS011;1570;51.350;6.602;2022-07-09T07:21:21;6.30;;;2.73;;
3119;SDS011;1570;51.350;6.602;2022-07-09T07:23:50;7.13;;;2.80;;
3119;SDS011;1570;51.350;6.602;2022-07-09T07:26:18;6.17;;;2.77;;
3119;SDS011;1570;51.350;6.602;2022-07-09T07:28:45;8.30;;;2.83;;
3119;SDS011;1570;51.350;6.602;2022-07-09T07:31:15;7.03;;;2.67;;
3119;SDS011;1570;51.350;6.602;2022-07-09T07:33:44;6.23;;;3.00;;
3119;SDS011;1570;51.350;6.602;2022-07-09T07:36:11;5.63;;;2.53;;
3119;SDS011;1570;51.350;6.602;2022-07-09T07:38:42;5.20;;;2.53;;
3119;SDS011;1570;51.350;6.602;2022-07-09T07:41:11;6.23;;;2.90;;
3119;SDS011;1570;51.350;6.602;2022-07-09T07:43:39;6.73;;;2.73;;
3119;SDS011;1570;51.350;6.602;2022-07-09T07:46:07;6.30;;;2.73;;
3119;SDS011;1570;51.350;6.602;2022-07-09T07:48:34;6.03;;;2.57;;
3119;SDS011;1570;51.350;6.602;2022-07-09T07:51:04;4.80;;;2.20;;
3119;SDS011;1570;51.350;6.602;2022-07-09T07:53:33;6.80;;;2.40;;
3119;SDS011;1570;51.350;6.602;2022-07-09T07:56:01;6.37;;;2.13;;
3119;SDS011;1570;51.350;6.602;2022-07-09T07:58:28;5.80;;;2.30;;
3119;SDS011;1570;51.350;6.602;2022-07-09T08:00:56;6.20;;;2.30;;
3119;SDS011;1570;51.350;6.602;2022-07-09T08:03:24;6.93;;;2.40;;
3119;SDS011;1570;51.350;6.602;2022-07-09T08:05:56;6.50;;;2.63;;
3119;SDS011;1570;51.350;6.602;2022-07-09T08:08:25;5.33;;;2.47;;
3119;SDS011;1570;51.350;6.602;2022-07-09T08:10:53;5.40;;;2.33;;
3119;SDS011;1570;51.350;6.602;2022-07-09T08:13:22;6.60;;;2.43;;
3119;SDS011;1570;51.350;6.602;2022-07-09T08:15:50;6.10;;;2.30;;
3119;SDS011;1570;51.350;6.602;2022-07-09T08:18:17;4.43;;;2.27;;
3119;SDS011;1570;51.350;6.602;2022-07-09T08:20:52;4.40;;;1.97;;
3119;SDS011;1570;51.350;6.602;2022-07-09T08:23:20;5.70;;;2.00;;
3119;SDS011;1570;51.350;6.602;2022-07-09T08:25:48;5.17;;;2.37;;
3119;SDS011;1570;51.350;6.602;2022-07-09T08:28:16;6.43;;;2.00;;
3119;SDS011;1570;51.350;6.602;2022-07-09T08:30:44;5.40;;;2.37;;
3119;SDS011;1570;51.350;6.602;2022-07-09T08:33:12;5.43;;;2.13;;
3119;SDS011;1570;51.350;6.602;2022-07-09T08:35:40;4.53;;;2.10;;
3119;SDS011;1570;51.350;6.602;2022-07-09T08:38:07;7.80;;;2.57;;
3119;SDS011;1570;51.350;6.602;2022-07-09T08:40:35;7.33;;;2.73;;
3119;SDS011;1570;51.350;6.602;2022-07-09T08:43:04;7.77;;;2.50;;
3119;SDS011;1570;51.350;6.602;2022-07-09T08:45:33;6.20;;;3.60;;
3119;SDS011;1570;51.350;6.602;2022-07-09T08:48:02;8.23;;;2.10;;
3119;SDS011;1570;51.350;6.602;2022-07-09T08:50:32;6.00;;;2.13;;
3119;SDS011;1570;51.350;6.602;2022-07-09T08:53:00;4.90;;;2.20;;
3119;SDS011;1570;51.350;6.602;2022-07-09T08:55:28;6.33;;;2.10;;
3119;SDS011;1570;51.350;6.602;2022-07-09T08:57:56;6.00;;;2.10;;
3119;SDS011;1570;51.350;6.602;2022-07-09T09:00:25;4.70;;;1.60;;
3119;SDS011;1570;51.350;6.602;2022-07-09T09:02:53;6.17;;;1.57;;
3119;SDS011;1570;51.350;6.602;2022-07-09T09:05:20;6.50;;;1.90;;
3119;SDS011;1570;51.350;6.602;2022-07-09T09:07:47;6.17;;;2.00;;
3119;SDS011;1570;51.350;6.602;2022-07-09T09:10:21;7.00;;;1.90;;
3119;SDS011;1570;51.350;6.602;2022-07-09T09:12:54;4.77;;;2.10;;
3119;SDS011;1570;51.350;6.602;2022-07-09T09:15:22;5.17;;;2.10;;
3119;SDS011;1570;51.350;6.602;2022-07-09T09:17:51;4.00;;;1.50;;
3119;SDS011;1570;51.350;6.602;2022-07-09T09:20:18;5.30;;;1.80;;
3119;SDS011;1570;51.350;6.602;2022-07-09T09:22:46;4.57;;;1.83;;
3119;SDS011;1570;51.350;6.602;2022-07-09T09:25:17;6.97;;;2.27;;
3119;SDS011;1570;51.350;6.602;2022-07-09T09:27:51;6.87;;;1.90;;
3119;SDS011;1570;51.350;6.602;2022-07-09T09:30:19;4.73;;;1.40;;
3119;SDS011;1570;51.350;6.602;2022-07-09T09:32:55;5.97;;;1.87;;
3119;SDS011;1570;51.350;6.602;2022-07-09T09:35:24;4.90;;;1.47;;
3119;SDS011;1570;51.350;6.602;2022-07-09T09:37:51;9.40;;;1.87;;
3119;SDS011;1570;51.350;6.602;2022-07-09T09:40:20;7.33;;;1.77;;
3119;SDS011;1570;51.350;6.602;2022-07-09T09:42:47;8.97;;;4.20;;
3119;SDS011;1570;51.350;6.602;2022-07-09T09:45:17;10.30;;;3.23;;
3119;SDS011;1570;51.350;6.602;2022-07-09T09:47:46;15.40;;;2.97;;
3119;SDS011;1570;51.350;6.602;2022-07-09T09:50:18;7.20;;;2.90;;
3119;SDS011;1570;51.350;6.602;2022-07-09T09:52:46;8.93;;;2.90;;
3119;SDS011;1570;51.350;6.602;2022-07-09T09:55:15;6.23;;;2.00;;
3119;SDS011;1570;51.350;6.602;2022-07-09T09:57:43;4.93;;;2.10;;
3119;SDS011;1570;51.350;6.602;2022-07-09T10:00:11;7.40;;;2.30;;
3119;SDS011;1570;51.350;6.602;2022-07-09T10:02:40;4.40;;;1.83;;
3119;SDS011;1570;51.350;6.602;2022-07-09T10:05:09;6.70;;;1.80;;
3119;SDS011;1570;51.350;6.602;2022-07-09T10:07:38;4.53;;;1.57;;
3119;SDS011;1570;51.350;6.602;2022-07-09T10:10:06;6.30;;;2.10;;
3119;SDS011;1570;51.350;6.602;2022-07-09T10:12:36;6.10;;;1.40;;
3119;SDS011;1570;51.350;6.602;2022-07-09T10:15:08;4.70;;;1.77;;
3119;SDS011;1570;51.350;6.602;2022-07-09T10:17:38;5.60;;;1.60;;
3119;SDS011;1570;51.350;6.602;2022-07-09T10:20:07;8.27;;;1.73;;
3119;SDS011;1570;51.350;6.602;2022-07-09T10:22:38;7.47;;;2.00;;
3119;SDS011;1570;51.350;6.602;2022-07-09T10:25:07;5.87;;;1.90;;
3119;SDS011;1570;51.350;6.602;2022-07-09T10:27:41;4.10;;;1.40;;
3119;SDS011;1570;51.350;6.602;2022-07-09T10:30:21;4.20;;;1.70;;
3119;SDS011;1570;51.350;6.602;2022-07-09T10:33:00;4.60;;;1.70;;
3119;SDS011;1570;51.350;6.602;2022-07-09T10:35:27;4.63;;;1.80;;
3119;SDS011;1570;51.350;6.602;2022-07-09T10:37:56;5.10;;;1.60;;
3119;SDS011;1570;51.350;6.602;2022-07-09T10:40:24;5.07;;;2.03;;
3119;SDS011;1570;51.350;6.602;2022-07-09T10:42:57;4.40;;;1.60;;
3119;SDS011;1570;51.350;6.602;2022-07-09T10:45:25;6.20;;;1.53;;
3119;SDS011;1570;51.350;6.602;2022-07-09T10:47:54;5.70;;;1.83;;
3119;SDS011;1570;51.350;6.602;2022-07-09T10:50:22;5.90;;;1.93;;
3119;SDS011;1570;51.350;6.602;2022-07-09T10:52:50;4.63;;;1.70;;
3119;SDS011;1570;51.350;6.602;2022-07-09T10:55:20;5.37;;;1.47;;
3119;SDS011;1570;51.350;6.602;2022-07-09T10:57:48;5.10;;;1.70;;
3119;SDS011;1570;51.350;6.602;2022-07-09T11:00:15;5.17;;;1.80;;
3119;SDS011;1570;51.350;6.602;2022-07-09T11:02:53;7.17;;;2.13;;
3119;SDS011;1570;51.350;6.602;2022-07-09T11:05:20;7.63;;;2.00;;
3119;SDS011;1570;51.350;6.602;2022-07-09T11:07:57;6.40;;;2.00;;
3119;SDS011;1570;51.350;6.602;2022-07-09T11:10:27;7.57;;;2.03;;
3119;SDS011;1570;51.350;6.602;2022-07-09T11:12:54;6.50;;;2.13;;
3119;SDS011;1570;51.350;6.602;2022-07-09T11:15:25;5.20;;;1.60;;
3119;SDS011;1570;51.350;6.602;2022-07-09T11:17:54;5.40;;;1.87;;
3119;SDS011;1570;51.350;6.602;2022-07-09T11:20:21;8.30;;;2.00;;
3119;SDS011;1570;51.350;6.602;2022-07-09T11:22:49;9.70;;;2.57;;
3119;SDS011;1570;51.350;6.602;2022-07-09T11:25:19;5.70;;;2.17;;
3119;SDS011;1570;51.350;6.602;2022-07-09T11:27:48;14.80;;;2.70;;
3119;SDS011;1570;51.350;6.602;2022-07-09T11:30:15;4.90;;;2.13;;
3119;SDS011;1570;51.350;6.602;2022-07-09T11:32:43;7.20;;;2.37;;
3119;SDS011;1570;51.350;6.602;2022-07-09T11:35:11;7.00;;;2.30;;
3119;SDS011;1570;51.350;6.602;2022-07-09T11:37:44;7.00;;;2.50;;
3119;SDS011;1570;51.350;6.602;2022-07-09T11:40:15;7.37;;;2.50;;
3119;SDS011;1570;51.350;6.602;2022-07-09T11:42:44;6.00;;;2.20;;
3119;SDS011;1570;51.350;6.602;2022-07-09T11:45:13;5.97;;;2.00;;
3119;SDS011;1570;51.350;6.602;2022-07-09T11:47:41;6.90;;;2.67;;
3119;SDS011;1570;51.350;6.602;2022-07-09T11:50:09;4.80;;;2.20;;
3119;SDS011;1570;51.350;6.602;2022-07-09T11:52:42;6.97;;;2.67;;
3119;SDS011;1570;51.350;6.602;2022-07-09T11:55:11;9.10;;;2.40;;
3119;SDS011;1570;51.350;6.602;2022-07-09T11:57:39;9.63;;;2.50;;
3119;SDS011;1570;51.350;6.602;2022-07-09T12:00:07;7.83;;;3.70;;
3119;SDS011;1570;51.350;6.602;2022-07-09T12:02:37;7.67;;;3.27;;
3119;SDS011;1570;51.350;6.602;2022-07-09T12:05:05;10.30;;;3.10;;
3119;SDS011;1570;51.350;6.602;2022-07-09T12:07:33;7.60;;;3.80;;
3119;SDS011;1570;51.350;6.602;2022-07-09T12:10:02;18.67;;;3.90;;
3119;SDS011;1570;51.350;6.602;2022-07-09T12:12:31;7.80;;;4.03;;
3119;SDS011;1570;51.350;6.602;2022-07-09T12:14:59;12.17;;;4.00;;
3119;SDS011;1570;51.350;6.602;2022-07-09T12:17:29;12.50;;;4.63;;
3119;SDS011;1570;51.350;6.602;2022-07-09T12:19:59;7.33;;;4.00;;
3119;SDS011;1570;51.350;6.602;2022-07-09T12:22:27;8.23;;;3.83;;
3119;SDS011;1570;51.350;6.602;2022-07-09T12:24:54;8.10;;;3.90;;
3119;SDS011;1570;51.350;6.602;2022-07-09T12:27:21;7.67;;;4.77;;
3119;SDS011;1570;51.350;6.602;2022-07-09T12:29:49;8.87;;;5.03;;
3119;SDS011;1570;51.350;6.602;2022-07-09T12:32:17;8.37;;;4.40;;
3119;SDS011;1570;51.350;6.602;2022-07-09T12:34:45;10.07;;;4.53;;
3119;SDS011;1570;51.350;6.602;2022-07-09T12:37:14;6.93;;;4.20;;
3119;SDS011;1570;51.350;6.602;2022-07-09T12:39:42;7.80;;;4.60;;
3119;SDS011;1570;51.350;6.602;2022-07-09T12:42:12;8.80;;;4.73;;
3119;SDS011;1570;51.350;6.602;2022-07-09T12:44:40;9.53;;;4.60;;
3119;SDS011;1570;51.350;6.602;2022-07-09T12:47:08;8.17;;;4.63;;
3119;SDS011;1570;51.350;6.602;2022-07-09T12:49:35;9.23;;;5.30;;
3119;SDS011;1570;51.350;6.602;2022-07-09T12:52:03;10.40;;;6.17;;
3119;SDS011;1570;51.350;6.602;2022-07-09T12:54:32;7.63;;;6.23;;
3119;SDS011;1570;51.350;6.602;2022-07-09T12:56:59;9.03;;;6.20;;
3119;SDS011;1570;51.350;6.602;2022-07-09T12:59:35;10.10;;;6.00;;
3119;SDS011;1570;51.350;6.602;2022-07-09T13:02:02;9.37;;;6.10;;
3119;SDS011;1570;51.350;6.602;2022-07-09T13:04:30;8.90;;;6.37;;
3119;SDS011;1570;51.350;6.602;2022-07-09T13:06:58;9.37;;;5.27;;
3119;SDS011;1570;51.350;6.602;2022-07-09T13:09:25;13.63;;;5.70;;
3119;SDS011;1570;51.350;6.602;2022-07-09T13:11:54;8.70;;;5.00;;
3119;SDS011;1570;51.350;6.602;2022-07-09T13:14:22;9.00;;;5.50;;
3119;SDS011;1570;51.350;6.602;2022-07-09T13:16:49;9.50;;;4.73;;
3119;SDS011;1570;51.350;6.602;2022-07-09T13:19:29;8.73;;;5.20;;
3119;SDS011;1570;51.350;6.602;2022-07-09T13:21:57;23.70;;;6.10;;
3119;SDS011;1570;51.350;6.602;2022-07-09T13:24:24;9.40;;;5.07;;
3119;SDS011;1570;51.350;6.602;2022-07-09T13:26:52;7.30;;;4.57;;
3119;SDS011;1570;51.350;6.602;2022-07-09T13:29:21;8.90;;;4.57;;
3119;SDS011;1570;51.350;6.602;2022-07-09T13:31:49;10.23;;;4.43;;
3119;SDS011;1570;51.350;6.602;2022-07-09T13:34:16;8.73;;;4.20;;
3119;SDS011;1570;51.350;6.602;2022-07-09T13:36:44;7.13;;;3.70;;
3119;SDS011;1570;51.350;6.602;2022-07-09T13:39:11;9.23;;;4.10;;
3119;SDS011;1570;51.350;6.602;2022-07-09T13:41:39;7.93;;;3.73;;
3119;SDS011;1570;51.350;6.602;2022-07-09T13:44:06;9.47;;;3.90;;
3119;SDS011;1570;51.350;6.602;2022-07-09T13:46:36;7.90;;;3.90;;
3119;SDS011;1570;51.350;6.602;2022-07-09T13:49:03;7.57;;;3.60;;
3119;SDS011;1570;51.350;6.602;2022-07-09T13:51:31;9.00;;;3.57;;
3119;SDS011;1570;51.350;6.602;2022-07-09T13:53:59;9.00;;;3.20;;
3119;SDS011;1570;51.350;6.602;2022-07-09T13:56:27;6.00;;;3.27;;
3119;SDS011;1570;51.350;6.602;2022-07-09T13:58:55;6.80;;;3.00;;
3119;SDS011;1570;51.350;6.602;2022-07-09T14:01:22;7.33;;;3.03;;
3119;SDS011;1570;51.350;6.602;2022-07-09T14:03:51;5.53;;;2.77;;
3119;SDS011;1570;51.350;6.602;2022-07-09T14:06:18;6.57;;;2.33;;
3119;SDS011;1570;51.350;6.602;2022-07-09T14:09:06;5.23;;;2.07;;
3119;SDS011;1570;51.350;6.602;2022-07-09T14:11:34;6.03;;;2.23;;
3119;SDS011;1570;51.350;6.602;2022-07-09T14:14:01;4.83;;;2.67;;
3119;SDS011;1570;51.350;6.602;2022-07-09T14:16:29;4.80;;;2.10;;
3119;SDS011;1570;51.350;6.602;2022-07-09T14:18:58;6.10;;;2.40;;
3119;SDS011;1570;51.350;6.602;2022-07-09T14:21:26;6.83;;;2.53;;
3119;SDS011;1570;51.350;6.602;2022-07-09T14:23:54;5.67;;;2.30;;
3119;SDS011;1570;51.350;6.602;2022-07-09T14:26:21;7.20;;;2.23;;
3119;SDS011;1570;51.350;6.602;2022-07-09T14:28:50;6.63;;;2.60;;
3119;SDS011;1570;51.350;6.602;2022-07-09T14:31:18;9.33;;;2.30;;
3119;SDS011;1570;51.350;6.602;2022-07-09T14:33:45;7.60;;;2.40;;
3119;SDS011;1570;51.350;6.602;2022-07-09T14:36:14;8.17;;;2.30;;
3119;SDS011;1570;51.350;6.602;2022-07-09T14:38:42;7.63;;;2.33;;
3119;SDS011;1570;51.350;6.602;2022-07-09T14:41:09;10.17;;;2.00;;
3119;SDS011;1570;51.350;6.602;2022-07-09T14:43:37;5.00;;;2.00;;
3119;SDS011;1570;51.350;6.602;2022-07-09T14:46:06;7.23;;;2.10;;
3119;SDS011;1570;51.350;6.602;2022-07-09T14:48:34;9.90;;;2.33;;
3119;SDS011;1570;51.350;6.602;2022-07-09T14:51:02;6.73;;;2.20;;
3119;SDS011;1570;51.350;6.602;2022-07-09T14:53:33;4.60;;;1.70;;
3119;SDS011;1570;51.350;6.602;2022-07-09T14:56:04;6.23;;;2.30;;
3119;SDS011;1570;51.350;6.602;2022-07-09T14:58:32;5.90;;;1.60;;
3119;SDS011;1570;51.350;6.602;2022-07-09T15:00:59;4.60;;;1.73;;
3119;SDS011;1570;51.350;6.602;2022-07-09T15:03:27;8.13;;;1.87;;
3119;SDS011;1570;51.350;6.602;2022-07-09T15:05:55;5.33;;;1.93;;
3119;SDS011;1570;51.350;6.602;2022-07-09T15:08:22;6.17;;;1.90;;
3119;SDS011;1570;51.350;6.602;2022-07-09T15:10:51;4.20;;;1.60;;
3119;SDS011;1570;51.350;6.602;2022-07-09T15:13:19;5.07;;;1.87;;
3119;SDS011;1570;51.350;6.602;2022-07-09T15:15:47;4.30;;;1.70;;
3119;SDS011;1570;51.350;6.602;2022-07-09T15:18:14;5.50;;;1.60;;
3119;SDS011;1570;51.350;6.602;2022-07-09T15:20:42;5.63;;;1.37;;
3119;SDS011;1570;51.350;6.602;2022-07-09T15:23:09;6.33;;;2.20;;